Time;durP1;ratioP1;P1;durP2;ratioP2;P2;SDS_P1;SDS_P2;PMS_P1;PMS_P2;Temp;Humidity;BMP_temperature;BMP_pressure;BME280_temperature;BME280_humidity;BME280_pressure;Samples;Min_cycle;Max_cycle;Signal;HPM_P1;HPM_P2
2023/09/13 00:01:56;;;;;;;20.10;13.35;;;16.70;99.90;;;;;;4988984;28;20523;-72
2023/09/13 00:04:21;;;;;;;19.88;13.73;;;16.70;99.90;;;;;;4985465;28;20046;-71
2023/09/13 00:06:47;;;;;;;17.77;12.35;;;16.60;99.90;;;;;;4984652;28;20038;-72
2023/09/13 00:09:13;;;;;;;18.58;13.40;;;16.70;99.90;;;;;;4986076;28;20081;-72
2023/09/13 00:11:38;;;;;;;19.80;12.18;;;16.70;99.90;;;;;;4987390;28;20030;-72
2023/09/13 00:14:04;;;;;;;20.38;13.45;;;16.70;99.90;;;;;;4987041;28;20042;-71
2023/09/13 00:16:30;;;;;;;18.75;12.55;;;16.70;99.90;;;;;;4988234;28;20050;-73
2023/09/13 00:18:55;;;;;;;16.40;12.23;;;16.70;99.90;;;;;;4984466;28;20046;-73
2023/09/13 00:21:21;;;;;;;17.50;12.95;;;16.70;99.90;;;;;;4986537;28;20039;-73
2023/09/13 00:23:47;;;;;;;24.08;14.55;;;16.70;99.90;;;;;;4989068;28;20453;-71
2023/09/13 00:26:14;;;;;;;22.98;14.68;;;16.70;99.90;;;;;;4983325;28;20041;-73
2023/09/13 00:28:39;;;;;;;26.38;17.25;;;16.80;99.90;;;;;;4984555;28;20027;-73
2023/09/13 00:31:08;;;;;;;26.60;15.98;;;16.80;99.90;;;;;;4992146;28;20382;-71
2023/09/13 00:33:33;;;;;;;23.40;14.93;;;16.80;99.90;;;;;;4981356;28;20399;-74
2023/09/13 00:35:59;;;;;;;26.30;15.98;;;16.90;99.90;;;;;;4987883;28;20038;-72
2023/09/13 00:38:24;;;;;;;26.70;16.20;;;16.90;99.90;;;;;;4986043;28;20086;-72
2023/09/13 00:40:51;;;;;;;24.70;15.15;;;16.90;99.90;;;;;;4984800;28;20098;-72
2023/09/13 00:43:17;;;;;;;22.52;15.02;;;16.80;99.90;;;;;;4985578;28;20022;-74
2023/09/13 00:45:43;;;;;;;24.25;15.55;;;16.90;99.90;;;;;;4993546;28;20450;-73
2023/09/13 00:48:09;;;;;;;23.35;14.18;;;16.90;99.90;;;;;;4989680;28;20104;-72
2023/09/13 00:50:36;;;;;;;22.92;14.98;;;16.90;99.90;;;;;;4991529;28;20027;-72
2023/09/13 00:53:06;;;;;;;23.23;15.60;;;16.90;99.90;;;;;;4993867;28;20026;-76
2023/09/13 00:55:32;;;;;;;22.77;14.93;;;16.90;99.90;;;;;;4990165;28;20023;-73
2023/09/13 00:57:58;;;;;;;22.33;14.70;;;16.90;99.90;;;;;;4987036;28;20809;-73
2023/09/13 01:00:26;;;;;;;21.88;15.05;;;16.90;99.90;;;;;;4987884;28;20042;-72
2023/09/13 01:02:52;;;;;;;21.67;14.95;;;16.90;99.90;;;;;;4989733;28;20057;-72
2023/09/13 01:05:18;;;;;;;22.58;14.73;;;16.90;99.90;;;;;;4988234;28;20074;-72
2023/09/13 01:07:44;;;;;;;24.75;16.48;;;16.90;99.90;;;;;;4987769;28;20042;-74
2023/09/13 01:10:11;;;;;;;21.50;14.60;;;16.80;99.90;;;;;;4988572;28;20034;-73
2023/09/13 01:12:36;;;;;;;24.13;15.27;;;16.80;99.90;;;;;;4985910;28;20022;-74
2023/09/13 01:15:06;;;;;;;26.35;15.85;;;16.90;99.90;;;;;;4987583;28;20045;-76
2023/09/13 01:17:54;;;;;;;24.42;14.20;;;16.80;99.90;;;;;;4983488;28;20034;-72
2023/09/13 01:21:05;;;;;;;25.20;15.02;;;16.90;99.90;;;;;;4992937;28;20077;-73
2023/09/13 01:23:43;;;;;;;27.67;14.90;;;16.90;99.90;;;;;;4983506;28;20023;-72
2023/09/13 01:26:34;;;;;;;25.40;15.13;;;16.90;99.90;;;;;;4968894;28;20046;-73
2023/09/13 01:29:00;;;;;;;25.75;15.85;;;16.90;99.90;;;;;;4989582;28;20034;-73
2023/09/13 01:31:27;;;;;;;28.92;15.32;;;16.80;99.90;;;;;;4978039;28;20414;-73
2023/09/13 01:33:53;;;;;;;24.92;15.45;;;16.80;99.90;;;;;;4987372;28;20118;-72
2023/09/13 01:36:19;;;;;;;24.13;14.70;;;16.80;99.90;;;;;;4988870;28;20460;-74
2023/09/13 01:38:45;;;;;;;22.98;15.27;;;16.80;99.90;;;;;;4995573;28;20041;-74
2023/09/13 01:41:17;;;;;;;27.38;15.13;;;16.80;99.90;;;;;;4984541;28;20070;-73
2023/09/13 01:43:45;;;;;;;23.08;13.90;;;16.80;99.90;;;;;;4988191;28;20022;-74
2023/09/13 01:46:12;;;;;;;27.00;15.40;;;16.90;99.90;;;;;;4988732;28;20026;-72
2023/09/13 01:48:39;;;;;;;23.38;14.43;;;16.90;99.90;;;;;;4986017;28;20034;-72
2023/09/13 01:51:05;;;;;;;21.38;14.15;;;16.90;99.90;;;;;;4981561;28;20073;-72
2023/09/13 01:53:31;;;;;;;22.15;14.57;;;16.90;99.90;;;;;;4989836;28;20100;-72
2023/09/13 01:55:56;;;;;;;21.23;14.02;;;16.90;99.90;;;;;;4988656;28;20442;-75
2023/09/13 01:58:22;;;;;;;20.05;13.35;;;16.90;99.90;;;;;;4989453;28;20467;-73
2023/09/13 02:00:47;;;;;;;23.50;13.75;;;16.90;99.90;;;;;;4985787;28;20406;-73
2023/09/13 02:03:14;;;;;;;25.75;14.48;;;16.90;99.90;;;;;;4985791;28;20493;-71
2023/09/13 02:05:39;;;;;;;23.40;13.88;;;17.00;99.90;;;;;;4977873;28;20089;-72
2023/09/13 02:08:05;;;;;;;22.80;14.35;;;17.00;99.90;;;;;;4983783;28;20035;-74
2023/09/13 02:10:30;;;;;;;21.13;13.07;;;16.90;99.90;;;;;;4983766;28;20041;-72
2023/09/13 02:12:58;;;;;;;23.33;13.95;;;16.90;99.90;;;;;;4986529;28;20031;-72
2023/09/13 02:15:24;;;;;;;21.73;13.50;;;16.90;99.90;;;;;;4986353;28;20408;-72
2023/09/13 02:17:49;;;;;;;21.10;12.82;;;16.90;99.90;;;;;;4986925;28;20037;-71
2023/09/13 02:20:14;;;;;;;22.67;13.02;;;16.90;99.90;;;;;;4985823;28;20066;-72
2023/09/13 02:22:40;;;;;;;23.63;12.82;;;16.80;99.90;;;;;;4985409;28;20034;-73
2023/09/13 02:25:06;;;;;;;20.77;13.10;;;16.90;99.90;;;;;;4990829;28;20427;-72
2023/09/13 02:27:34;;;;;;;22.83;13.40;;;17.00;99.90;;;;;;4989591;28;20027;-72
2023/09/13 02:30:04;;;;;;;23.60;13.48;;;17.00;99.90;;;;;;4986204;28;20486;-72
2023/09/13 02:32:30;;;;;;;27.40;14.05;;;17.00;99.90;;;;;;4983610;28;20125;-71
2023/09/13 02:34:55;;;;;;;23.33;13.48;;;17.00;99.90;;;;;;4987404;28;20109;-72
2023/09/13 02:37:21;;;;;;;29.73;12.90;;;17.00;99.90;;;;;;4999256;28;20038;-74
2023/09/13 02:39:46;;;;;;;22.88;13.27;;;17.00;99.90;;;;;;4989387;28;20097;-74
2023/09/13 02:42:11;;;;;;;23.27;14.48;;;17.00;99.90;;;;;;4990790;28;20042;-72
2023/09/13 02:44:37;;;;;;;25.75;13.70;;;17.00;99.90;;;;;;4988722;28;20298;-72
2023/09/13 02:47:03;;;;;;;28.45;14.55;;;17.00;99.90;;;;;;4987426;28;20038;-73
2023/09/13 02:49:29;;;;;;;29.05;14.00;;;17.00;99.90;;;;;;4997980;28;20045;-74
2023/09/13 02:51:55;;;;;;;27.65;15.68;;;17.00;99.90;;;;;;4991488;28;20384;-72
2023/09/13 02:54:21;;;;;;;27.15;14.98;;;17.00;99.90;;;;;;4991575;28;20030;-74
2023/09/13 02:56:49;;;;;;;24.55;13.80;;;17.10;99.90;;;;;;4982284;28;20050;-77
2023/09/13 02:59:15;;;;;;;25.80;14.07;;;17.00;99.90;;;;;;4990375;28;20035;-73
2023/09/13 03:01:42;;;;;;;25.25;14.65;;;17.00;99.90;;;;;;4987234;28;20092;-73
2023/09/13 03:04:07;;;;;;;21.73;12.77;;;17.00;99.90;;;;;;4995011;28;20433;-72
2023/09/13 03:06:33;;;;;;;21.90;13.23;;;17.00;99.90;;;;;;5002175;28;20026;-72
2023/09/13 03:08:58;;;;;;;24.10;14.80;;;17.00;99.90;;;;;;4989946;28;20101;-72
2023/09/13 03:11:24;;;;;;;20.23;13.85;;;17.00;99.90;;;;;;4991188;28;20034;-72
2023/09/13 03:13:50;;;;;;;26.98;14.23;;;17.00;99.90;;;;;;4994042;28;20097;-74
2023/09/13 03:16:17;;;;;;;26.30;14.15;;;17.00;99.90;;;;;;4989312;28;20030;-78
2023/09/13 03:18:44;;;;;;;23.77;13.95;;;17.10;99.90;;;;;;4989292;28;20374;-72
2023/09/13 03:21:10;;;;;;;24.50;14.65;;;17.10;99.90;;;;;;4992633;28;20030;-72
2023/09/13 03:23:41;;;;;;;22.98;14.60;;;17.10;99.90;;;;;;4995989;28;20470;-72
2023/09/13 03:26:20;;;;;;;22.60;13.85;;;17.10;99.90;;;;;;4995634;28;20022;-72
2023/09/13 03:28:48;;;;;;;22.85;14.40;;;17.10;99.90;;;;;;4992839;28;20066;-74
2023/09/13 03:31:16;;;;;;;24.23;15.05;;;17.10;99.90;;;;;;4992645;28;20057;-72
2023/09/13 03:33:42;;;;;;;22.77;14.90;;;17.10;99.90;;;;;;4989256;28;20462;-72
2023/09/13 03:36:09;;;;;;;24.48;15.25;;;17.20;99.90;;;;;;4995375;28;20034;-72
2023/09/13 03:38:38;;;;;;;23.95;14.02;;;17.10;99.90;;;;;;4996228;28;20030;-73
2023/09/13 03:41:04;;;;;;;25.05;14.80;;;17.10;99.90;;;;;;4973823;28;20165;-71
2023/09/13 03:43:30;;;;;;;23.77;14.57;;;17.10;99.90;;;;;;4983366;28;20167;-72
2023/09/13 03:45:55;;;;;;;23.05;14.77;;;17.10;99.90;;;;;;4988301;28;20074;-72
2023/09/13 03:48:21;;;;;;;26.65;15.93;;;17.10;99.90;;;;;;4990833;28;20248;-72
2023/09/13 03:50:47;;;;;;;27.38;15.85;;;17.20;99.90;;;;;;4983240;28;20454;-71
2023/09/13 03:53:13;;;;;;;29.90;16.50;;;17.20;99.90;;;;;;4997144;28;20475;-72
2023/09/13 03:55:38;;;;;;;29.73;17.83;;;17.20;99.90;;;;;;4993212;28;20030;-72
2023/09/13 03:58:04;;;;;;;33.00;17.67;;;17.20;99.90;;;;;;4990061;28;20030;-73
2023/09/13 04:00:29;;;;;;;28.17;17.73;;;17.20;99.90;;;;;;4985163;28;20081;-72
2023/09/13 04:02:55;;;;;;;33.53;17.70;;;17.30;99.90;;;;;;4981380;28;20026;-72
2023/09/13 04:05:20;;;;;;;32.40;18.02;;;17.20;99.90;;;;;;4984574;28;20165;-72
2023/09/13 04:07:46;;;;;;;35.40;19.27;;;17.20;99.90;;;;;;4983381;28;20046;-74
2023/09/13 04:10:11;;;;;;;35.20;19.02;;;17.20;99.90;;;;;;4990377;28;20044;-72
2023/09/13 04:12:37;;;;;;;34.20;19.00;;;17.20;99.90;;;;;;4987267;28;20456;-72
2023/09/13 04:15:04;;;;;;;38.72;20.83;;;17.20;99.90;;;;;;4991056;28;20115;-73
2023/09/13 04:17:29;;;;;;;41.95;20.63;;;17.20;99.90;;;;;;4987039;28;20041;-72
2023/09/13 04:19:55;;;;;;;39.22;21.23;;;17.20;99.90;;;;;;5002545;28;20042;-73
2023/09/13 04:22:20;;;;;;;38.10;20.15;;;17.20;99.90;;;;;;5002144;28;20036;-72
2023/09/13 04:24:46;;;;;;;40.15;19.65;;;17.10;99.90;;;;;;4990432;28;20049;-72
2023/09/13 04:27:11;;;;;;;34.78;19.33;;;17.20;99.90;;;;;;4986807;28;20027;-70
2023/09/13 04:29:40;;;;;;;30.83;17.45;;;17.20;99.90;;;;;;4990762;28;20045;-69
2023/09/13 04:32:06;;;;;;;28.02;16.75;;;17.10;99.90;;;;;;4982667;28;21118;-69
2023/09/13 04:34:36;;;;;;;33.25;16.67;;;17.10;99.90;;;;;;4983015;28;21835;-69
2023/09/13 04:37:02;;;;;;;28.58;16.30;;;17.10;99.90;;;;;;4997700;28;20304;-68
2023/09/13 04:39:31;;;;;;;25.45;15.38;;;17.10;99.90;;;;;;4982518;28;20044;-69
2023/09/13 04:41:56;;;;;;;27.10;15.05;;;17.10;99.90;;;;;;4986119;28;20034;-69
2023/09/13 04:44:22;;;;;;;27.83;15.13;;;17.10;99.90;;;;;;4986962;28;20065;-70
2023/09/13 04:46:47;;;;;;;22.63;14.10;;;17.00;99.90;;;;;;4988480;28;20558;-68
2023/09/13 04:49:13;;;;;;;31.00;16.13;;;17.10;99.90;;;;;;4987505;28;20384;-69
2023/09/13 04:51:38;;;;;;;29.80;16.15;;;17.10;99.90;;;;;;4991024;28;20034;-69
2023/09/13 04:54:04;;;;;;;32.42;18.23;;;17.10;99.90;;;;;;4991367;28;20027;-70
2023/09/13 04:56:29;;;;;;;33.17;17.08;;;17.10;99.90;;;;;;4986762;28;20030;-68
2023/09/13 04:58:55;;;;;;;41.15;20.00;;;17.20;99.90;;;;;;4985402;28;20077;-70
2023/09/13 05:01:20;;;;;;;40.35;20.55;;;17.10;99.90;;;;;;4997876;28;20027;-71
2023/09/13 05:03:47;;;;;;;37.00;18.05;;;17.20;99.90;;;;;;4983869;28;20034;-72
2023/09/13 05:06:12;;;;;;;31.25;16.38;;;17.20;99.90;;;;;;4981691;28;20454;-69
2023/09/13 05:08:38;;;;;;;20.75;11.05;;;17.20;99.90;;;;;;4993138;28;20113;-69
2023/09/13 05:11:03;;;;;;;22.92;10.20;;;17.20;99.90;;;;;;4987610;28;20454;-69
2023/09/13 05:13:30;;;;;;;17.00;8.48;;;17.10;99.90;;;;;;4988281;28;20438;-69
2023/09/13 05:15:56;;;;;;;12.77;6.50;;;17.10;99.90;;;;;;4980424;28;20352;-69
2023/09/13 05:18:21;;;;;;;10.48;5.55;;;17.00;99.90;;;;;;4980842;28;20049;-69
2023/09/13 05:20:47;;;;;;;9.57;5.00;;;16.80;99.90;;;;;;4990950;28;20105;-69
2023/09/13 05:23:12;;;;;;;8.85;5.07;;;16.80;99.90;;;;;;4987266;28;20447;-69
2023/09/13 05:25:45;;;;;;;8.35;5.00;;;16.70;99.90;;;;;;4989780;28;20065;-69
2023/09/13 05:28:14;;;;;;;8.73;4.13;;;16.60;99.90;;;;;;4991947;28;20042;-71
2023/09/13 05:30:39;;;;;;;8.20;4.40;;;16.50;99.90;;;;;;4985262;28;20034;-70
2023/09/13 05:33:05;;;;;;;8.13;4.35;;;16.40;99.90;;;;;;4990307;28;20026;-69
2023/09/13 05:35:32;;;;;;;6.68;4.15;;;16.50;99.90;;;;;;4993516;28;20629;-70
2023/09/13 05:37:58;;;;;;;7.15;4.10;;;16.40;99.90;;;;;;4986486;28;20038;-71
2023/09/13 05:40:27;;;;;;;6.57;3.67;;;16.40;99.90;;;;;;4971213;28;20042;-69
2023/09/13 05:42:52;;;;;;;5.43;3.38;;;16.40;99.90;;;;;;4986367;28;20030;-69
2023/09/13 05:45:18;;;;;;;5.22;2.85;;;16.20;99.90;;;;;;4983780;28;20040;-70
2023/09/13 05:47:43;;;;;;;6.30;2.92;;;16.20;99.90;;;;;;4985936;28;20038;-73
2023/09/13 05:50:09;;;;;;;6.00;2.70;;;16.20;99.90;;;;;;4983369;28;20034;-72
2023/09/13 05:52:37;;;;;;;3.70;2.53;;;16.20;99.90;;;;;;4988282;28;20022;-68
2023/09/13 05:55:03;;;;;;;3.92;2.50;;;16.10;99.90;;;;;;4988080;28;20034;-68
2023/09/13 05:57:28;;;;;;;5.50;2.58;;;16.10;99.90;;;;;;4983446;28;20429;-70
2023/09/13 05:59:54;;;;;;;3.80;2.13;;;16.20;99.90;;;;;;4983328;28;20092;-69
2023/09/13 06:02:19;;;;;;;3.33;2.08;;;16.30;99.90;;;;;;4976409;28;20054;-70
2023/09/13 06:04:45;;;;;;;4.40;2.03;;;16.30;99.90;;;;;;4964304;28;20070;-69
2023/09/13 06:07:10;;;;;;;3.38;2.03;;;16.20;99.90;;;;;;4981281;28;20030;-68
2023/09/13 06:09:36;;;;;;;3.85;1.70;;;16.20;99.90;;;;;;4988820;28;20113;-68
2023/09/13 06:12:01;;;;;;;4.88;1.77;;;16.30;99.90;;;;;;4990246;28;20107;-69
2023/09/13 06:14:27;;;;;;;3.17;1.77;;;16.20;99.90;;;;;;4991704;28;20076;-68
2023/09/13 06:16:53;;;;;;;1.90;1.40;;;16.20;99.90;;;;;;4993522;28;20030;-68
2023/09/13 06:19:18;;;;;;;1.92;1.05;;;16.10;99.90;;;;;;4993017;28;20479;-70
2023/09/13 06:21:45;;;;;;;1.25;1.00;;;16.20;99.90;;;;;;4989425;28;20045;-70
2023/09/13 06:24:10;;;;;;;5.38;1.30;;;16.10;99.90;;;;;;4992285;28;20074;-68
2023/09/13 06:26:36;;;;;;;2.03;1.10;;;16.30;99.90;;;;;;4992974;28;20149;-68
2023/09/13 06:29:02;;;;;;;1.73;1.10;;;16.20;99.90;;;;;;4986174;28;20489;-68
2023/09/13 06:31:27;;;;;;;1.45;0.98;;;16.30;99.90;;;;;;4992088;28;20471;-72
2023/09/13 06:33:53;;;;;;;1.55;1.20;;;16.20;99.90;;;;;;4998012;28;20022;-69
2023/09/13 06:36:19;;;;;;;1.63;1.17;;;16.20;99.90;;;;;;5000212;28;20048;-68
2023/09/13 06:38:44;;;;;;;1.65;1.08;;;16.20;99.90;;;;;;4994738;28;20549;-70
2023/09/13 06:41:10;;;;;;;1.67;1.10;;;16.10;99.90;;;;;;4991226;28;20364;-68
2023/09/13 06:43:36;;;;;;;1.40;1.05;;;16.10;99.90;;;;;;4993722;28;20391;-69
2023/09/13 06:46:03;;;;;;;2.22;1.10;;;16.00;99.90;;;;;;4992361;28;20030;-68
2023/09/13 06:48:28;;;;;;;1.27;0.82;;;16.10;99.90;;;;;;4976321;28;20057;-68
2023/09/13 06:50:55;;;;;;;1.70;1.00;;;16.00;99.90;;;;;;4997788;28;20030;-69
2023/09/13 06:53:20;;;;;;;1.45;1.23;;;16.00;99.90;;;;;;4995035;28;20041;-69
2023/09/13 06:55:46;;;;;;;2.58;1.30;;;16.00;99.90;;;;;;4984693;28;20523;-68
2023/09/13 06:58:12;;;;;;;2.08;1.33;;;16.00;99.90;;;;;;4989410;28;20050;-68
2023/09/13 07:00:39;;;;;;;2.83;1.65;;;16.00;99.90;;;;;;5001716;28;20053;-69
2023/09/13 07:03:06;;;;;;;2.17;1.67;;;16.00;99.90;;;;;;4987932;28;20112;-69
2023/09/13 07:05:31;;;;;;;2.55;1.63;;;15.90;99.90;;;;;;4994792;28;20109;-68
2023/09/13 07:07:58;;;;;;;2.60;1.90;;;15.90;99.90;;;;;;4994300;28;20117;-68
2023/09/13 07:10:23;;;;;;;2.75;1.77;;;15.80;99.90;;;;;;4989358;28;20030;-71
2023/09/13 07:12:49;;;;;;;4.90;2.00;;;15.90;99.90;;;;;;4989006;28;20049;-70
2023/09/13 07:15:15;;;;;;;6.00;2.40;;;15.90;99.90;;;;;;4975393;28;20034;-70
2023/09/13 07:17:41;;;;;;;6.15;4.13;;;15.90;99.90;;;;;;4991614;28;20033;-69
2023/09/13 07:20:07;;;;;;;8.55;4.90;;;15.80;99.90;;;;;;4993975;28;20487;-69
2023/09/13 07:22:32;;;;;;;12.68;6.75;;;15.90;99.90;;;;;;4993617;28;20106;-69
2023/09/13 07:24:58;;;;;;;15.50;7.15;;;15.80;99.90;;;;;;4992331;28;20047;-69
2023/09/13 07:27:23;;;;;;;8.80;6.20;;;15.80;99.90;;;;;;4992683;28;20034;-69
2023/09/13 07:29:49;;;;;;;10.45;5.82;;;15.70;99.90;;;;;;4988364;28;20038;-69
2023/09/13 07:32:17;;;;;;;11.27;4.85;;;15.60;99.90;;;;;;4984698;28;20027;-73
2023/09/13 07:34:43;;;;;;;7.72;3.95;;;15.40;99.90;;;;;;4985668;28;20447;-69
2023/09/13 07:37:09;;;;;;;7.20;4.20;;;15.40;99.90;;;;;;4995653;28;20077;-68
2023/09/13 07:39:36;;;;;;;12.13;4.65;;;15.20;99.90;;;;;;4991493;28;20105;-69
2023/09/13 07:42:03;;;;;;;7.93;3.70;;;15.30;99.90;;;;;;4993291;28;20034;-68
2023/09/13 07:44:29;;;;;;;7.80;3.22;;;15.20;99.90;;;;;;4992270;28;20027;-69
2023/09/13 07:46:54;;;;;;;7.25;3.33;;;15.10;99.90;;;;;;4989613;28;20376;-69
2023/09/13 07:49:19;;;;;;;9.63;3.03;;;15.00;99.90;;;;;;4988903;28;20077;-70
2023/09/13 07:51:45;;;;;;;6.13;2.42;;;15.10;99.90;;;;;;4993125;28;20552;-68
2023/09/13 07:54:10;;;;;;;8.32;2.15;;;15.00;99.70;;;;;;4990373;28;20096;-68
2023/09/13 07:56:37;;;;;;;5.70;2.15;;;14.90;99.70;;;;;;4993283;28;20486;-69
2023/09/13 07:59:03;;;;;;;5.88;2.58;;;15.00;99.70;;;;;;4992633;28;20035;-72
2023/09/13 08:01:29;;;;;;;6.45;1.80;;;15.00;99.60;;;;;;4989870;28;20031;-69
2023/09/13 08:03:54;;;;;;;5.63;2.15;;;15.00;99.50;;;;;;4985170;28;20037;-69
2023/09/13 08:06:22;;;;;;;5.32;1.50;;;15.00;99.10;;;;;;4987995;28;20030;-69
2023/09/13 08:08:48;;;;;;;4.32;1.33;;;14.90;99.00;;;;;;4978248;28;20470;-70
2023/09/13 08:11:14;;;;;;;5.97;1.75;;;15.00;99.20;;;;;;4992907;28;20109;-69
2023/09/13 08:13:40;;;;;;;4.35;1.33;;;14.90;99.00;;;;;;4992759;28;20062;-69
2023/09/13 08:16:06;;;;;;;3.17;1.30;;;14.80;98.80;;;;;;4991643;28;20065;-69
2023/09/13 08:18:31;;;;;;;8.55;1.90;;;14.80;98.90;;;;;;4980171;28;20030;-69
2023/09/13 08:20:56;;;;;;;4.68;1.38;;;14.70;98.40;;;;;;4988412;28;20121;-69
2023/09/13 08:23:22;;;;;;;7.15;1.75;;;14.80;99.20;;;;;;4990500;28;20037;-69
2023/09/13 08:25:47;;;;;;;5.22;1.33;;;14.60;98.80;;;;;;4993390;28;20419;-69
2023/09/13 08:28:13;;;;;;;4.45;1.52;;;14.80;99.20;;;;;;4990410;28;20109;-69
2023/09/13 08:30:38;;;;;;;6.85;1.67;;;14.80;98.50;;;;;;4991732;28;20037;-69
2023/09/13 08:33:06;;;;;;;8.38;1.77;;;14.90;98.90;;;;;;4988929;28;20030;-69
2023/09/13 08:35:32;;;;;;;4.88;1.80;;;14.90;98.80;;;;;;4994119;28;20106;-69
2023/09/13 08:37:57;;;;;;;7.90;1.83;;;14.80;98.70;;;;;;4988869;28;20122;-70
2023/09/13 08:40:24;;;;;;;4.32;1.77;;;15.00;99.20;;;;;;4992453;28;20034;-70
2023/09/13 08:42:51;;;;;;;9.48;1.48;;;15.00;99.20;;;;;;4991775;28;20423;-69
2023/09/13 08:45:17;;;;;;;7.10;1.80;;;15.10;99.20;;;;;;4989136;28;20100;-69
2023/09/13 08:47:44;;;;;;;7.10;1.80;;;15.10;99.20;;;;;;4987517;28;20034;-69
2023/09/13 08:50:11;;;;;;;3.90;1.20;;;15.20;99.20;;;;;;4988901;28;20030;-71
2023/09/13 08:52:37;;;;;;;4.22;1.70;;;15.20;99.00;;;;;;4989084;28;20038;-68
2023/09/13 08:55:06;;;;;;;3.83;1.50;;;15.20;98.70;;;;;;4985750;28;20101;-70
2023/09/13 08:57:33;;;;;;;4.97;1.30;;;15.20;98.90;;;;;;4982601;28;20045;-69
2023/09/13 08:59:59;;;;;;;9.02;1.80;;;15.20;99.00;;;;;;4986862;28;20473;-68
2023/09/13 09:02:26;;;;;;;5.00;1.45;;;15.20;98.70;;;;;;4980504;28;20038;-69
2023/09/13 09:04:52;;;;;;;8.88;1.58;;;15.30;98.70;;;;;;4993373;28;20033;-69
2023/09/13 09:07:19;;;;;;;3.60;1.35;;;15.30;98.30;;;;;;4983291;28;20030;-70
2023/09/13 09:09:46;;;;;;;3.45;1.23;;;15.30;98.50;;;;;;4984833;28;20109;-69
2023/09/13 09:12:16;;;;;;;4.25;1.33;;;15.20;97.70;;;;;;4979835;28;20090;-70
2023/09/13 09:14:44;;;;;;;4.93;1.75;;;15.50;98.60;;;;;;4985127;28;20374;-69
2023/09/13 09:17:11;;;;;;;4.90;1.70;;;15.50;97.80;;;;;;4985314;28;20459;-68
2023/09/13 09:19:37;;;;;;;7.07;1.67;;;15.70;98.10;;;;;;4987366;28;20471;-68
2023/09/13 09:22:03;;;;;;;7.18;2.08;;;15.70;97.60;;;;;;4990802;28;20124;-68
2023/09/13 09:24:29;;;;;;;4.05;1.35;;;15.70;97.30;;;;;;4995359;28;20128;-69
2023/09/13 09:26:55;;;;;;;7.72;1.83;;;15.70;96.90;;;;;;4997366;28;20443;-69
2023/09/13 09:29:42;;;;;;;4.47;1.20;;;15.60;97.00;;;;;;4984969;28;20041;-70
2023/09/13 09:32:08;;;;;;;6.68;1.40;;;15.50;96.60;;;;;;4985100;28;20038;-69
2023/09/13 09:34:39;;;;;;;4.85;1.65;;;15.50;96.80;;;;;;5006849;28;20033;-68
2023/09/13 09:37:08;;;;;;;3.67;1.42;;;15.50;97.10;;;;;;4986790;28;20039;-71
2023/09/13 09:39:42;;;;;;;7.93;1.73;;;15.50;97.40;;;;;;4990190;28;20045;-69
2023/09/13 09:42:15;;;;;;;7.90;1.52;;;15.40;96.90;;;;;;4991608;28;20046;-69
2023/09/13 09:44:41;;;;;;;3.38;1.20;;;15.30;96.40;;;;;;4987619;28;20037;-68
2023/09/13 09:47:11;;;;;;;6.80;1.73;;;15.30;96.60;;;;;;4988612;28;20411;-69
2023/09/13 09:49:37;;;;;;;7.47;1.67;;;15.30;97.20;;;;;;4994315;28;20497;-70
2023/09/13 09:52:03;;;;;;;7.25;1.25;;;15.30;96.70;;;;;;4990351;28;20045;-69
2023/09/13 09:54:28;;;;;;;6.45;1.70;;;15.20;96.70;;;;;;5000568;28;20114;-69
2023/09/13 09:56:54;;;;;;;8.05;1.65;;;15.10;96.90;;;;;;4989217;28;20114;-69
2023/09/13 09:59:19;;;;;;;7.47;1.58;;;15.00;96.30;;;;;;4980437;28;20034;-68
2023/09/13 10:01:46;;;;;;;8.13;1.83;;;15.00;96.60;;;;;;4983862;28;20479;-68
2023/09/13 10:04:12;;;;;;;6.78;1.48;;;15.00;97.10;;;;;;4989930;28;20427;-68
2023/09/13 10:06:56;;;;;;;4.95;1.67;;;15.00;97.00;;;;;;4988508;28;20049;-69
2023/09/13 10:09:22;;;;;;;6.43;1.70;;;15.00;97.10;;;;;;4991493;28;20392;-71
2023/09/13 10:11:54;;;;;;;7.43;1.45;;;15.00;97.20;;;;;;4991011;28;20121;-69
2023/09/13 10:14:27;;;;;;;7.40;2.08;;;14.90;96.80;;;;;;4990062;28;20053;-70
2023/09/13 10:16:54;;;;;;;4.75;2.08;;;15.00;97.60;;;;;;4982739;28;20460;-69
2023/09/13 10:19:22;;;;;;;6.07;1.88;;;15.00;97.60;;;;;;4973953;28;20102;-69
2023/09/13 10:21:50;;;;;;;9.73;1.73;;;15.20;97.70;;;;;;4987544;28;20046;-68
2023/09/13 10:24:18;;;;;;;8.85;1.60;;;15.20;97.80;;;;;;4991718;28;20458;-68
2023/09/13 10:26:45;;;;;;;5.35;1.60;;;15.10;96.60;;;;;;4990261;28;20388;-69
2023/09/13 10:29:12;;;;;;;7.93;1.90;;;15.10;96.70;;;;;;4969997;28;20124;-69
2023/09/13 10:31:46;;;;;;;6.00;1.65;;;15.10;96.60;;;;;;4987993;28;20700;-69
2023/09/13 10:34:21;;;;;;;5.22;1.52;;;15.00;96.60;;;;;;4974756;28;20046;-68
2023/09/13 10:36:52;;;;;;;8.10;1.52;;;15.00;96.70;;;;;;4990198;28;20098;-69
2023/09/13 10:39:32;;;;;;;4.28;1.50;;;15.20;97.10;;;;;;4994518;28;20050;-69
2023/09/13 10:42:07;;;;;;;4.43;1.37;;;15.20;97.40;;;;;;4996837;28;20073;-68
2023/09/13 10:44:36;;;;;;;4.25;1.17;;;15.10;96.60;;;;;;4988014;28;20093;-68
2023/09/13 10:47:04;;;;;;;5.75;1.50;;;15.10;96.80;;;;;;4989803;28;20494;-69
2023/09/13 10:49:29;;;;;;;6.53;1.55;;;15.10;97.00;;;;;;4987969;28;20414;-68
2023/09/13 10:51:58;;;;;;;9.23;2.40;;;15.30;97.50;;;;;;4988637;28;20030;-69
2023/09/13 10:54:25;;;;;;;11.30;2.35;;;15.20;97.10;;;;;;4988939;28;20038;-68
2023/09/13 10:56:51;;;;;;;11.70;2.78;;;15.30;97.00;;;;;;4990273;28;20037;-69
2023/09/13 10:59:23;;;;;;;8.45;2.58;;;15.30;97.10;;;;;;4985973;28;20495;-69
2023/09/13 11:01:49;;;;;;;8.98;2.08;;;15.50;97.20;;;;;;4983268;28;20137;-68
2023/09/13 11:04:17;;;;;;;6.25;1.80;;;15.50;96.60;;;;;;4992457;28;20101;-68
2023/09/13 11:06:44;;;;;;;8.90;1.85;;;15.50;96.70;;;;;;4992624;28;20513;-68
2023/09/13 11:09:17;;;;;;;6.35;1.65;;;15.60;97.00;;;;;;4992617;28;20073;-69
2023/09/13 11:11:51;;;;;;;7.20;1.70;;;15.50;96.70;;;;;;4987268;28;20406;-69
2023/09/13 11:14:31;;;;;;;7.85;1.42;;;15.50;96.30;;;;;;4993184;28;20022;-68
2023/09/13 11:17:09;;;;;;;4.53;1.83;;;15.50;96.80;;;;;;4985187;28;20042;-69
2023/09/13 11:19:35;;;;;;;9.80;2.17;;;15.50;96.90;;;;;;4973697;28;20088;-69
2023/09/13 11:22:03;;;;;;;9.35;2.10;;;15.60;96.70;;;;;;4992883;28;20475;-69
2023/09/13 11:24:43;;;;;;;6.32;1.73;;;15.50;95.70;;;;;;4994910;28;20052;-69
2023/09/13 11:27:18;;;;;;;5.90;1.50;;;15.50;94.80;;;;;;4985468;28;20035;-69
2023/09/13 11:29:46;;;;;;;9.88;1.75;;;15.60;94.80;;;;;;4990556;28;20030;-68
2023/09/13 11:32:17;;;;;;;8.52;2.10;;;15.60;95.50;;;;;;4986676;28;20098;-69
2023/09/13 11:34:43;;;;;;;8.52;1.65;;;15.70;95.50;;;;;;4993934;28;20034;-68
2023/09/13 11:37:10;;;;;;;7.00;1.75;;;15.80;96.20;;;;;;4993105;28;20438;-70
2023/09/13 11:39:36;;;;;;;7.53;2.25;;;15.80;95.90;;;;;;4990924;28;20049;-68
2023/09/13 11:42:05;;;;;;;6.70;2.42;;;15.80;95.00;;;;;;4991179;28;20104;-68
2023/09/13 11:44:30;;;;;;;5.35;1.80;;;15.80;94.70;;;;;;4987603;28;20030;-69
2023/09/13 11:46:56;;;;;;;6.65;1.75;;;15.80;94.90;;;;;;4971594;28;20374;-68
2023/09/13 11:49:24;;;;;;;4.88;1.42;;;15.90;94.00;;;;;;4995496;28;20026;-69
2023/09/13 11:51:59;;;;;;;6.28;1.50;;;16.00;94.30;;;;;;4995415;28;20049;-69
2023/09/13 11:54:26;;;;;;;7.32;1.80;;;15.90;93.00;;;;;;4994126;28;20426;-68
2023/09/13 11:56:53;;;;;;;6.50;1.50;;;16.10;94.00;;;;;;4993305;28;20061;-69
2023/09/13 11:59:30;;;;;;;11.20;1.90;;;16.20;94.20;;;;;;4991491;28;20030;-69
2023/09/13 12:01:56;;;;;;;3.58;1.50;;;16.10;93.20;;;;;;4982570;28;20047;-68
2023/09/13 12:04:26;;;;;;;4.70;1.25;;;16.00;93.10;;;;;;4986911;28;20062;-69
2023/09/13 12:06:54;;;;;;;7.00;1.20;;;15.80;93.00;;;;;;4991891;28;20042;-70
2023/09/13 12:09:21;;;;;;;2.65;0.93;;;15.70;93.60;;;;;;4980984;28;20037;-69
2023/09/13 12:11:49;;;;;;;3.35;1.38;;;15.50;94.10;;;;;;4973516;28;20129;-69
2023/09/13 12:14:16;;;;;;;3.75;1.23;;;15.40;93.30;;;;;;4992036;28;20058;-68
2023/09/13 12:16:42;;;;;;;6.18;1.55;;;15.30;92.80;;;;;;4971819;28;20129;-68
2023/09/13 12:19:10;;;;;;;4.38;1.40;;;15.20;93.50;;;;;;4976707;28;20038;-69
2023/09/13 12:21:36;;;;;;;5.50;1.35;;;15.20;93.30;;;;;;4989457;28;20467;-68
2023/09/13 12:24:02;;;;;;;5.15;1.08;;;15.10;93.30;;;;;;4989099;28;20522;-69
2023/09/13 12:26:28;;;;;;;4.20;1.45;;;14.90;92.80;;;;;;4986673;28;20034;-70
2023/09/13 12:28:54;;;;;;;3.25;1.35;;;14.80;93.30;;;;;;4990747;28;20093;-68
2023/09/13 12:31:20;;;;;;;3.97;1.00;;;14.60;93.50;;;;;;4991072;28;20033;-71
2023/09/13 12:33:48;;;;;;;7.10;1.45;;;14.50;92.90;;;;;;4984884;28;20077;-71
2023/09/13 12:36:14;;;;;;;6.28;1.83;;;14.40;92.50;;;;;;4986138;28;20154;-68
2023/09/13 12:38:42;;;;;;;3.20;1.20;;;14.50;93.40;;;;;;4993998;28;20038;-68